GABS/BKO METAR and TAF weather

Enter ICAO airport designator
Station Type Date Time Source
GABS METAR 2018/12/11 00:00 UTC NOAA

GABS 110000Z VRB02KT CAVOK 18/07 Q1017 NOSIG


Station Type Date Time Source
GABS Decoded METAR 2018/12/11 00:00 UTC NOAA

Bamako / Senou, Mali (GABS) 12-32N 007-57W 381M
Dec 10, 2018 - 07:00 PM EST / 2018.12.11 0000 UTC
Wind: Variable at 2 MPH (2 KT):0
Visibility: greater than 7 mile(s):0
Temperature: 64 F (18 C)
Dew Point: 44 F (7 C)
Relative Humidity: 48%
Pressure (altimeter): 30.03 in. Hg (1017 hPa)
ob: GABS 110000Z VRB02KT CAVOK 18/07 Q1017 NOSIG
cycle: 0

Station Type Date Time Source
GABS TAF 2018/12/10 18:12 UTC NOAA

TAF TAF GABS 101705Z 1018/1124 06010KT CAVOK


Example: see airport list